sensor_id;sensor_type;location;lat;lon;timestamp;P1;durP1;ratioP1;P2;durP2;ratioP2
54831;SDS011;40730;53.068;6.572;2024-02-14T00:02:00;13.55;;;7.35;;
54831;SDS011;40730;53.068;6.572;2024-02-14T00:04:26;12.20;;;7.30;;
54831;SDS011;40730;53.068;6.572;2024-02-14T00:06:51;14.05;;;7.88;;
54831;SDS011;40730;53.068;6.572;2024-02-14T00:09:18;11.68;;;8.10;;
54831;SDS011;40730;53.068;6.572;2024-02-14T00:11:44;12.38;;;8.77;;
54831;SDS011;40730;53.068;6.572;2024-02-14T00:14:09;12.82;;;9.50;;
54831;SDS011;40730;53.068;6.572;2024-02-14T00:16:35;14.30;;;9.45;;
54831;SDS011;40730;53.068;6.572;2024-02-14T00:19:01;14.02;;;10.40;;
54831;SDS011;40730;53.068;6.572;2024-02-14T00:21:27;20.85;;;10.48;;
54831;SDS011;40730;53.068;6.572;2024-02-14T00:23:53;16.83;;;11.07;;
54831;SDS011;40730;53.068;6.572;2024-02-14T00:26:18;16.83;;;11.07;;
54831;SDS011;40730;53.068;6.572;2024-02-14T00:28:44;15.70;;;10.35;;
54831;SDS011;40730;53.068;6.572;2024-02-14T00:31:10;15.57;;;10.60;;
54831;SDS011;40730;53.068;6.572;2024-02-14T00:33:35;19.98;;;11.25;;
54831;SDS011;40730;53.068;6.572;2024-02-14T00:36:01;17.13;;;11.10;;
54831;SDS011;40730;53.068;6.572;2024-02-14T00:38:26;20.63;;;11.20;;
54831;SDS011;40730;53.068;6.572;2024-02-14T00:40:52;19.15;;;12.07;;
54831;SDS011;40730;53.068;6.572;2024-02-14T00:43:17;13.82;;;10.77;;
54831;SDS011;40730;53.068;6.572;2024-02-14T00:45:43;20.10;;;12.30;;
54831;SDS011;40730;53.068;6.572;2024-02-14T00:48:08;13.88;;;10.38;;
54831;SDS011;40730;53.068;6.572;2024-02-14T00:50:34;20.50;;;11.57;;
54831;SDS011;40730;53.068;6.572;2024-02-14T00:53:00;15.13;;;11.32;;
54831;SDS011;40730;53.068;6.572;2024-02-14T00:55:25;18.33;;;12.70;;
54831;SDS011;40730;53.068;6.572;2024-02-14T00:57:51;14.00;;;10.88;;
54831;SDS011;40730;53.068;6.572;2024-02-14T01:00:17;14.93;;;10.30;;
54831;SDS011;40730;53.068;6.572;2024-02-14T01:02:43;17.45;;;10.65;;
54831;SDS011;40730;53.068;6.572;2024-02-14T01:05:09;14.20;;;10.50;;
54831;SDS011;40730;53.068;6.572;2024-02-14T01:07:35;15.30;;;10.80;;
54831;SDS011;40730;53.068;6.572;2024-02-14T01:10:01;13.30;;;9.77;;
54831;SDS011;40730;53.068;6.572;2024-02-14T01:12:27;16.30;;;11.18;;
54831;SDS011;40730;53.068;6.572;2024-02-14T01:14:54;14.20;;;11.07;;
54831;SDS011;40730;53.068;6.572;2024-02-14T01:17:20;16.42;;;11.77;;
54831;SDS011;40730;53.068;6.572;2024-02-14T01:19:46;14.45;;;10.60;;
54831;SDS011;40730;53.068;6.572;2024-02-14T01:22:11;12.20;;;9.93;;
54831;SDS011;40730;53.068;6.572;2024-02-14T01:24:37;15.60;;;9.35;;
54831;SDS011;40730;53.068;6.572;2024-02-14T01:27:02;10.68;;;9.20;;
54831;SDS011;40730;53.068;6.572;2024-02-14T01:29:28;15.60;;;10.20;;
54831;SDS011;40730;53.068;6.572;2024-02-14T01:31:54;14.48;;;10.18;;
54831;SDS011;40730;53.068;6.572;2024-02-14T01:34:20;11.80;;;9.70;;
54831;SDS011;40730;53.068;6.572;2024-02-14T01:36:47;12.85;;;9.25;;
54831;SDS011;40730;53.068;6.572;2024-02-14T01:39:13;13.75;;;9.75;;
54831;SDS011;40730;53.068;6.572;2024-02-14T01:41:38;10.65;;;8.73;;
54831;SDS011;40730;53.068;6.572;2024-02-14T01:44:10;12.32;;;8.75;;
54831;SDS011;40730;53.068;6.572;2024-02-14T01:46:36;11.88;;;9.35;;
54831;SDS011;40730;53.068;6.572;2024-02-14T01:49:02;10.88;;;7.78;;
54831;SDS011;40730;53.068;6.572;2024-02-14T01:51:28;8.40;;;7.43;;
54831;SDS011;40730;53.068;6.572;2024-02-14T01:53:54;9.93;;;8.38;;
54831;SDS011;40730;53.068;6.572;2024-02-14T01:56:21;9.18;;;7.72;;
54831;SDS011;40730;53.068;6.572;2024-02-14T01:58:46;10.75;;;8.85;;
54831;SDS011;40730;53.068;6.572;2024-02-14T02:01:12;9.48;;;8.18;;
54831;SDS011;40730;53.068;6.572;2024-02-14T02:03:38;10.88;;;8.35;;
54831;SDS011;40730;53.068;6.572;2024-02-14T02:06:07;9.65;;;7.15;;
54831;SDS011;40730;53.068;6.572;2024-02-14T02:08:33;8.70;;;7.50;;
54831;SDS011;40730;53.068;6.572;2024-02-14T02:10:58;11.60;;;8.65;;
54831;SDS011;40730;53.068;6.572;2024-02-14T02:13:24;9.32;;;7.38;;
54831;SDS011;40730;53.068;6.572;2024-02-14T02:15:50;9.82;;;8.27;;
54831;SDS011;40730;53.068;6.572;2024-02-14T02:18:18;11.30;;;7.72;;
54831;SDS011;40730;53.068;6.572;2024-02-14T02:20:44;14.48;;;8.82;;
54831;SDS011;40730;53.068;6.572;2024-02-14T02:23:11;11.35;;;8.48;;
54831;SDS011;40730;53.068;6.572;2024-02-14T02:25:40;10.88;;;8.07;;
54831;SDS011;40730;53.068;6.572;2024-02-14T02:28:06;11.48;;;7.85;;
54831;SDS011;40730;53.068;6.572;2024-02-14T02:30:34;8.05;;;6.97;;
54831;SDS011;40730;53.068;6.572;2024-02-14T02:33:00;8.05;;;6.93;;
54831;SDS011;40730;53.068;6.572;2024-02-14T02:35:27;8.40;;;7.03;;
54831;SDS011;40730;53.068;6.572;2024-02-14T02:37:53;10.38;;;7.80;;
54831;SDS011;40730;53.068;6.572;2024-02-14T02:40:19;10.00;;;7.28;;
54831;SDS011;40730;53.068;6.572;2024-02-14T02:42:46;9.30;;;7.35;;
54831;SDS011;40730;53.068;6.572;2024-02-14T02:45:12;9.45;;;7.30;;
54831;SDS011;40730;53.068;6.572;2024-02-14T02:47:38;7.68;;;6.60;;
54831;SDS011;40730;53.068;6.572;2024-02-14T02:50:05;9.13;;;5.93;;
54831;SDS011;40730;53.068;6.572;2024-02-14T02:52:31;8.88;;;5.93;;
54831;SDS011;40730;53.068;6.572;2024-02-14T02:54:56;8.23;;;6.20;;
54831;SDS011;40730;53.068;6.572;2024-02-14T02:57:22;10.63;;;6.85;;
54831;SDS011;40730;53.068;6.572;2024-02-14T02:59:48;6.72;;;5.82;;
54831;SDS011;40730;53.068;6.572;2024-02-14T03:02:14;8.35;;;6.53;;
54831;SDS011;40730;53.068;6.572;2024-02-14T03:04:40;9.02;;;6.60;;
54831;SDS011;40730;53.068;6.572;2024-02-14T03:07:07;7.47;;;6.55;;
54831;SDS011;40730;53.068;6.572;2024-02-14T03:09:36;7.80;;;5.97;;
54831;SDS011;40730;53.068;6.572;2024-02-14T03:12:02;8.05;;;6.18;;
54831;SDS011;40730;53.068;6.572;2024-02-14T03:14:31;6.20;;;5.53;;
54831;SDS011;40730;53.068;6.572;2024-02-14T03:17:01;8.30;;;5.95;;
54831;SDS011;40730;53.068;6.572;2024-02-14T03:19:28;6.50;;;5.68;;
54831;SDS011;40730;53.068;6.572;2024-02-14T03:21:55;8.07;;;5.78;;
54831;SDS011;40730;53.068;6.572;2024-02-14T03:24:21;6.63;;;5.30;;
54831;SDS011;40730;53.068;6.572;2024-02-14T03:26:50;7.93;;;5.47;;
54831;SDS011;40730;53.068;6.572;2024-02-14T03:29:16;5.55;;;4.85;;
54831;SDS011;40730;53.068;6.572;2024-02-14T03:31:43;6.50;;;5.15;;
54831;SDS011;40730;53.068;6.572;2024-02-14T03:34:09;7.57;;;5.15;;
54831;SDS011;40730;53.068;6.572;2024-02-14T03:36:38;6.97;;;5.55;;
54831;SDS011;40730;53.068;6.572;2024-02-14T03:39:04;5.97;;;4.78;;
54831;SDS011;40730;53.068;6.572;2024-02-14T03:41:31;10.18;;;6.03;;
54831;SDS011;40730;53.068;6.572;2024-02-14T03:43:57;9.15;;;6.32;;
54831;SDS011;40730;53.068;6.572;2024-02-14T03:46:26;6.88;;;5.43;;
54831;SDS011;40730;53.068;6.572;2024-02-14T03:48:53;8.13;;;6.15;;
54831;SDS011;40730;53.068;6.572;2024-02-14T03:51:19;7.40;;;5.85;;
54831;SDS011;40730;53.068;6.572;2024-02-14T03:53:45;7.15;;;5.43;;
54831;SDS011;40730;53.068;6.572;2024-02-14T03:56:10;8.05;;;6.07;;
54831;SDS011;40730;53.068;6.572;2024-02-14T03:58:37;9.00;;;5.97;;
54831;SDS011;40730;53.068;6.572;2024-02-14T04:01:03;7.35;;;5.45;;
54831;SDS011;40730;53.068;6.572;2024-02-14T04:03:29;8.15;;;5.50;;
54831;SDS011;40730;53.068;6.572;2024-02-14T04:05:55;8.85;;;6.10;;
54831;SDS011;40730;53.068;6.572;2024-02-14T04:08:21;5.22;;;4.38;;
54831;SDS011;40730;53.068;6.572;2024-02-14T04:10:47;8.77;;;5.47;;
54831;SDS011;40730;53.068;6.572;2024-02-14T04:13:14;7.10;;;5.15;;
54831;SDS011;40730;53.068;6.572;2024-02-14T04:15:40;6.60;;;5.25;;
54831;SDS011;40730;53.068;6.572;2024-02-14T04:18:08;8.48;;;5.40;;
54831;SDS011;40730;53.068;6.572;2024-02-14T04:20:34;9.07;;;5.80;;
54831;SDS011;40730;53.068;6.572;2024-02-14T04:23:00;7.47;;;4.85;;
54831;SDS011;40730;53.068;6.572;2024-02-14T04:25:25;7.93;;;5.15;;
54831;SDS011;40730;53.068;6.572;2024-02-14T04:27:51;8.75;;;5.85;;
54831;SDS011;40730;53.068;6.572;2024-02-14T04:30:16;7.47;;;5.22;;
54831;SDS011;40730;53.068;6.572;2024-02-14T04:32:42;7.45;;;5.00;;
54831;SDS011;40730;53.068;6.572;2024-02-14T04:35:08;7.30;;;5.10;;
54831;SDS011;40730;53.068;6.572;2024-02-14T04:37:34;10.10;;;5.25;;
54831;SDS011;40730;53.068;6.572;2024-02-14T04:40:01;9.80;;;5.40;;
54831;SDS011;40730;53.068;6.572;2024-02-14T04:42:29;11.35;;;6.03;;
54831;SDS011;40730;53.068;6.572;2024-02-14T04:44:55;8.77;;;4.85;;
54831;SDS011;40730;53.068;6.572;2024-02-14T04:47:20;9.30;;;4.97;;
54831;SDS011;40730;53.068;6.572;2024-02-14T04:49:46;7.47;;;4.65;;
54831;SDS011;40730;53.068;6.572;2024-02-14T04:52:12;8.80;;;5.22;;
54831;SDS011;40730;53.068;6.572;2024-02-14T04:54:37;7.00;;;4.32;;
54831;SDS011;40730;53.068;6.572;2024-02-14T04:57:03;6.40;;;4.20;;
54831;SDS011;40730;53.068;6.572;2024-02-14T04:59:29;5.38;;;3.97;;
54831;SDS011;40730;53.068;6.572;2024-02-14T05:01:55;6.28;;;3.88;;
54831;SDS011;40730;53.068;6.572;2024-02-14T05:04:21;4.38;;;3.80;;
54831;SDS011;40730;53.068;6.572;2024-02-14T05:06:47;7.22;;;4.70;;
54831;SDS011;40730;53.068;6.572;2024-02-14T05:09:13;6.60;;;4.28;;
54831;SDS011;40730;53.068;6.572;2024-02-14T05:11:40;6.57;;;4.55;;
54831;SDS011;40730;53.068;6.572;2024-02-14T05:14:06;5.35;;;3.65;;
54831;SDS011;40730;53.068;6.572;2024-02-14T05:16:32;6.13;;;4.25;;
54831;SDS011;40730;53.068;6.572;2024-02-14T05:18:57;7.25;;;4.88;;
54831;SDS011;40730;53.068;6.572;2024-02-14T05:21:23;7.70;;;5.25;;
54831;SDS011;40730;53.068;6.572;2024-02-14T05:23:49;9.23;;;5.07;;
54831;SDS011;40730;53.068;6.572;2024-02-14T05:26:15;6.30;;;4.80;;
54831;SDS011;40730;53.068;6.572;2024-02-14T05:28:41;11.15;;;5.93;;
54831;SDS011;40730;53.068;6.572;2024-02-14T05:31:07;15.00;;;7.05;;
54831;SDS011;40730;53.068;6.572;2024-02-14T05:33:32;12.68;;;7.43;;
54831;SDS011;40730;53.068;6.572;2024-02-14T05:35:58;12.63;;;7.70;;
54831;SDS011;40730;53.068;6.572;2024-02-14T05:38:24;12.10;;;7.65;;
54831;SDS011;40730;53.068;6.572;2024-02-14T05:40:49;15.27;;;9.20;;
54831;SDS011;40730;53.068;6.572;2024-02-14T05:43:15;14.40;;;8.57;;
54831;SDS011;40730;53.068;6.572;2024-02-14T05:45:43;15.02;;;8.32;;
54831;SDS011;40730;53.068;6.572;2024-02-14T05:48:08;17.75;;;9.23;;
54831;SDS011;40730;53.068;6.572;2024-02-14T05:50:34;16.95;;;9.07;;
54831;SDS011;40730;53.068;6.572;2024-02-14T05:53:01;14.13;;;7.90;;
54831;SDS011;40730;53.068;6.572;2024-02-14T05:55:28;13.43;;;8.15;;
54831;SDS011;40730;53.068;6.572;2024-02-14T05:57:53;14.55;;;8.20;;
54831;SDS011;40730;53.068;6.572;2024-02-14T06:00:19;15.63;;;7.60;;
54831;SDS011;40730;53.068;6.572;2024-02-14T06:02:46;13.55;;;7.82;;
54831;SDS011;40730;53.068;6.572;2024-02-14T06:05:12;11.82;;;7.05;;
54831;SDS011;40730;53.068;6.572;2024-02-14T06:07:38;13.02;;;7.53;;
54831;SDS011;40730;53.068;6.572;2024-02-14T06:10:05;14.20;;;7.28;;
54831;SDS011;40730;53.068;6.572;2024-02-14T06:12:32;10.70;;;7.05;;
54831;SDS011;40730;53.068;6.572;2024-02-14T06:14:58;19.42;;;9.27;;
54831;SDS011;40730;53.068;6.572;2024-02-14T06:17:23;18.63;;;9.50;;
54831;SDS011;40730;53.068;6.572;2024-02-14T06:19:51;22.73;;;10.23;;
54831;SDS011;40730;53.068;6.572;2024-02-14T06:22:17;26.42;;;9.85;;
54831;SDS011;40730;53.068;6.572;2024-02-14T06:24:43;22.17;;;10.93;;
54831;SDS011;40730;53.068;6.572;2024-02-14T06:27:08;25.15;;;10.20;;
54831;SDS011;40730;53.068;6.572;2024-02-14T06:29:34;29.33;;;10.70;;
54831;SDS011;40730;53.068;6.572;2024-02-14T06:32:00;26.13;;;10.30;;
54831;SDS011;40730;53.068;6.572;2024-02-14T06:34:25;37.30;;;12.75;;
54831;SDS011;40730;53.068;6.572;2024-02-14T06:36:53;29.55;;;10.98;;
54831;SDS011;40730;53.068;6.572;2024-02-14T06:39:19;38.28;;;12.60;;
54831;SDS011;40730;53.068;6.572;2024-02-14T06:41:45;29.02;;;12.13;;
54831;SDS011;40730;53.068;6.572;2024-02-14T06:44:12;34.30;;;13.05;;
54831;SDS011;40730;53.068;6.572;2024-02-14T06:46:38;35.80;;;12.60;;
54831;SDS011;40730;53.068;6.572;2024-02-14T06:49:04;34.20;;;11.57;;
54831;SDS011;40730;53.068;6.572;2024-02-14T06:51:30;33.08;;;12.18;;
54831;SDS011;40730;53.068;6.572;2024-02-14T06:53:55;36.58;;;11.63;;
54831;SDS011;40730;53.068;6.572;2024-02-14T06:56:21;40.05;;;12.60;;
54831;SDS011;40730;53.068;6.572;2024-02-14T06:58:47;45.17;;;13.23;;
54831;SDS011;40730;53.068;6.572;2024-02-14T07:01:18;43.00;;;13.80;;
54831;SDS011;40730;53.068;6.572;2024-02-14T07:03:47;53.28;;;13.68;;
54831;SDS011;40730;53.068;6.572;2024-02-14T07:06:13;54.38;;;14.65;;
54831;SDS011;40730;53.068;6.572;2024-02-14T07:08:41;60.28;;;15.02;;
54831;SDS011;40730;53.068;6.572;2024-02-14T07:11:07;63.70;;;14.60;;
54831;SDS011;40730;53.068;6.572;2024-02-14T07:13:33;55.63;;;13.40;;
54831;SDS011;40730;53.068;6.572;2024-02-14T07:15:58;62.63;;;14.48;;
54831;SDS011;40730;53.068;6.572;2024-02-14T07:18:24;68.28;;;13.88;;
54831;SDS011;40730;53.068;6.572;2024-02-14T07:20:49;58.90;;;15.18;;
54831;SDS011;40730;53.068;6.572;2024-02-14T07:23:15;70.72;;;13.50;;
54831;SDS011;40730;53.068;6.572;2024-02-14T07:25:42;64.53;;;13.77;;
54831;SDS011;40730;53.068;6.572;2024-02-14T07:28:08;82.10;;;14.60;;
54831;SDS011;40730;53.068;6.572;2024-02-14T07:30:34;64.78;;;12.73;;
54831;SDS011;40730;53.068;6.572;2024-02-14T07:33:00;61.45;;;12.25;;
54831;SDS011;40730;53.068;6.572;2024-02-14T07:35:26;54.03;;;10.57;;
54831;SDS011;40730;53.068;6.572;2024-02-14T07:37:51;55.10;;;10.10;;
54831;SDS011;40730;53.068;6.572;2024-02-14T07:40:18;54.90;;;10.07;;
54831;SDS011;40730;53.068;6.572;2024-02-14T07:42:44;50.25;;;9.07;;
54831;SDS011;40730;53.068;6.572;2024-02-14T07:45:09;55.40;;;9.43;;
54831;SDS011;40730;53.068;6.572;2024-02-14T07:47:35;57.55;;;10.40;;
54831;SDS011;40730;53.068;6.572;2024-02-14T07:50:00;54.63;;;10.57;;
54831;SDS011;40730;53.068;6.572;2024-02-14T07:52:27;49.80;;;9.50;;
54831;SDS011;40730;53.068;6.572;2024-02-14T07:54:53;63.35;;;11.02;;
54831;SDS011;40730;53.068;6.572;2024-02-14T07:57:20;51.67;;;9.05;;
54831;SDS011;40730;53.068;6.572;2024-02-14T07:59:47;59.17;;;10.40;;
54831;SDS011;40730;53.068;6.572;2024-02-14T08:02:13;43.30;;;8.90;;
54831;SDS011;40730;53.068;6.572;2024-02-14T08:04:39;41.72;;;9.38;;
54831;SDS011;40730;53.068;6.572;2024-02-14T08:07:04;65.85;;;11.88;;
54831;SDS011;40730;53.068;6.572;2024-02-14T08:09:30;58.85;;;10.38;;
54831;SDS011;40730;53.068;6.572;2024-02-14T08:11:55;48.75;;;11.25;;
54831;SDS011;40730;53.068;6.572;2024-02-14T08:14:21;63.92;;;13.48;;
54831;SDS011;40730;53.068;6.572;2024-02-14T08:16:47;61.25;;;13.60;;
54831;SDS011;40730;53.068;6.572;2024-02-14T08:19:12;57.78;;;14.90;;
54831;SDS011;40730;53.068;6.572;2024-02-14T08:21:38;63.20;;;13.90;;
54831;SDS011;40730;53.068;6.572;2024-02-14T08:24:04;63.20;;;14.43;;
54831;SDS011;40730;53.068;6.572;2024-02-14T08:26:30;51.22;;;13.65;;
54831;SDS011;40730;53.068;6.572;2024-02-14T08:28:56;57.13;;;13.75;;
54831;SDS011;40730;53.068;6.572;2024-02-14T08:31:23;51.95;;;13.68;;
54831;SDS011;40730;53.068;6.572;2024-02-14T08:33:48;50.70;;;13.02;;
54831;SDS011;40730;53.068;6.572;2024-02-14T08:36:14;50.85;;;13.02;;
54831;SDS011;40730;53.068;6.572;2024-02-14T08:38:42;41.60;;;12.88;;
54831;SDS011;40730;53.068;6.572;2024-02-14T08:41:07;46.00;;;11.25;;
54831;SDS011;40730;53.068;6.572;2024-02-14T08:43:33;42.40;;;10.93;;
54831;SDS011;40730;53.068;6.572;2024-02-14T08:45:59;33.60;;;9.30;;
54831;SDS011;40730;53.068;6.572;2024-02-14T08:48:24;43.20;;;10.30;;
54831;SDS011;40730;53.068;6.572;2024-02-14T08:50:52;35.85;;;9.43;;
54831;SDS011;40730;53.068;6.572;2024-02-14T08:53:18;35.90;;;9.65;;
54831;SDS011;40730;53.068;6.572;2024-02-14T08:55:43;35.53;;;10.20;;
54831;SDS011;40730;53.068;6.572;2024-02-14T08:58:09;33.15;;;9.43;;
54831;SDS011;40730;53.068;6.572;2024-02-14T09:00:35;37.80;;;10.35;;
54831;SDS011;40730;53.068;6.572;2024-02-14T09:03:02;34.55;;;10.85;;
54831;SDS011;40730;53.068;6.572;2024-02-14T09:05:28;39.65;;;11.15;;
54831;SDS011;40730;53.068;6.572;2024-02-14T09:07:54;38.33;;;11.68;;
54831;SDS011;40730;53.068;6.572;2024-02-14T09:10:20;34.50;;;12.00;;
54831;SDS011;40730;53.068;6.572;2024-02-14T09:12:46;38.03;;;11.65;;
54831;SDS011;40730;53.068;6.572;2024-02-14T09:15:12;39.45;;;11.75;;
54831;SDS011;40730;53.068;6.572;2024-02-14T09:17:38;38.05;;;12.43;;
54831;SDS011;40730;53.068;6.572;2024-02-14T09:20:06;39.33;;;13.15;;
54831;SDS011;40730;53.068;6.572;2024-02-14T09:22:37;33.25;;;11.82;;
54831;SDS011;40730;53.068;6.572;2024-02-14T09:25:03;32.58;;;11.90;;
54831;SDS011;40730;53.068;6.572;2024-02-14T09:27:30;46.60;;;12.85;;
54831;SDS011;40730;53.068;6.572;2024-02-14T09:29:56;44.00;;;11.90;;
54831;SDS011;40730;53.068;6.572;2024-02-14T09:32:22;44.15;;;12.50;;
54831;SDS011;40730;53.068;6.572;2024-02-14T09:34:47;40.70;;;12.25;;
54831;SDS011;40730;53.068;6.572;2024-02-14T09:37:13;39.85;;;12.93;;
54831;SDS011;40730;53.068;6.572;2024-02-14T09:39:39;31.42;;;11.27;;
54831;SDS011;40730;53.068;6.572;2024-02-14T09:42:13;33.70;;;10.65;;
54831;SDS011;40730;53.068;6.572;2024-02-14T09:44:41;30.63;;;10.23;;
54831;SDS011;40730;53.068;6.572;2024-02-14T09:47:08;29.25;;;9.45;;
54831;SDS011;40730;53.068;6.572;2024-02-14T09:49:35;30.33;;;9.98;;
54831;SDS011;40730;53.068;6.572;2024-02-14T09:52:03;36.55;;;11.05;;
54831;SDS011;40730;53.068;6.572;2024-02-14T09:54:31;33.50;;;10.52;;
54831;SDS011;40730;53.068;6.572;2024-02-14T09:56:59;32.78;;;11.45;;
54831;SDS011;40730;53.068;6.572;2024-02-14T09:59:27;35.10;;;11.80;;
54831;SDS011;40730;53.068;6.572;2024-02-14T10:01:53;29.42;;;11.93;;
54831;SDS011;40730;53.068;6.572;2024-02-14T10:04:19;31.80;;;10.45;;
54831;SDS011;40730;53.068;6.572;2024-02-14T10:06:47;28.20;;;10.93;;
54831;SDS011;40730;53.068;6.572;2024-02-14T10:09:18;33.80;;;11.60;;
54831;SDS011;40730;53.068;6.572;2024-02-14T10:11:47;23.67;;;9.90;;
54831;SDS011;40730;53.068;6.572;2024-02-14T10:14:13;24.30;;;10.48;;
54831;SDS011;40730;53.068;6.572;2024-02-14T10:16:38;30.15;;;10.57;;
54831;SDS011;40730;53.068;6.572;2024-02-14T10:19:04;31.85;;;10.35;;
54831;SDS011;40730;53.068;6.572;2024-02-14T10:21:32;16.33;;;8.23;;
54831;SDS011;40730;53.068;6.572;2024-02-14T10:24:01;15.95;;;8.15;;
54831;SDS011;40730;53.068;6.572;2024-02-14T10:26:30;16.70;;;7.85;;
54831;SDS011;40730;53.068;6.572;2024-02-14T10:28:56;19.67;;;7.28;;
54831;SDS011;40730;53.068;6.572;2024-02-14T10:31:25;12.73;;;7.35;;
54831;SDS011;40730;53.068;6.572;2024-02-14T10:33:55;12.45;;;6.60;;
54831;SDS011;40730;53.068;6.572;2024-02-14T10:36:23;9.23;;;5.68;;
54831;SDS011;40730;53.068;6.572;2024-02-14T10:38:50;10.38;;;5.97;;
54831;SDS011;40730;53.068;6.572;2024-02-14T10:41:16;11.50;;;5.95;;
54831;SDS011;40730;53.068;6.572;2024-02-14T10:43:42;12.32;;;5.47;;
54831;SDS011;40730;53.068;6.572;2024-02-14T10:46:12;9.55;;;5.20;;
54831;SDS011;40730;53.068;6.572;2024-02-14T10:48:44;9.00;;;4.40;;
54831;SDS011;40730;53.068;6.572;2024-02-14T10:51:10;7.50;;;3.70;;
54831;SDS011;40730;53.068;6.572;2024-02-14T10:53:38;9.55;;;3.75;;
54831;SDS011;40730;53.068;6.572;2024-02-14T10:56:10;6.53;;;3.30;;
54831;SDS011;40730;53.068;6.572;2024-02-14T10:58:41;8.00;;;3.30;;
54831;SDS011;40730;53.068;6.572;2024-02-14T11:01:10;8.52;;;4.28;;
54831;SDS011;40730;53.068;6.572;2024-02-14T11:03:36;5.70;;;3.78;;
54831;SDS011;40730;53.068;6.572;2024-02-14T11:06:02;7.65;;;4.53;;
54831;SDS011;40730;53.068;6.572;2024-02-14T11:08:29;7.78;;;4.45;;
54831;SDS011;40730;53.068;6.572;2024-02-14T11:10:58;10.65;;;6.00;;
54831;SDS011;40730;53.068;6.572;2024-02-14T11:13:30;10.18;;;6.00;;
54831;SDS011;40730;53.068;6.572;2024-02-14T11:16:00;10.80;;;6.60;;
54831;SDS011;40730;53.068;6.572;2024-02-14T11:18:27;13.43;;;6.40;;
54831;SDS011;40730;53.068;6.572;2024-02-14T11:20:56;15.90;;;8.35;;
54831;SDS011;40730;53.068;6.572;2024-02-14T11:23:25;10.95;;;7.57;;
54831;SDS011;40730;53.068;6.572;2024-02-14T11:26:01;12.85;;;7.97;;
54831;SDS011;40730;53.068;6.572;2024-02-14T11:28:30;16.90;;;8.38;;
54831;SDS011;40730;53.068;6.572;2024-02-14T11:31:02;9.95;;;6.75;;
54831;SDS011;40730;53.068;6.572;2024-02-14T11:33:28;13.93;;;7.68;;
54831;SDS011;40730;53.068;6.572;2024-02-14T11:35:55;9.43;;;6.30;;
54831;SDS011;40730;53.068;6.572;2024-02-14T11:38:22;8.88;;;6.22;;
54831;SDS011;40730;53.068;6.572;2024-02-14T11:40:51;14.23;;;5.80;;
54831;SDS011;40730;53.068;6.572;2024-02-14T11:43:23;9.63;;;6.57;;
54831;SDS011;40730;53.068;6.572;2024-02-14T11:45:49;10.93;;;7.28;;
54831;SDS011;40730;53.068;6.572;2024-02-14T11:48:16;12.05;;;7.80;;
54831;SDS011;40730;53.068;6.572;2024-02-14T11:50:43;12.10;;;7.53;;
54831;SDS011;40730;53.068;6.572;2024-02-14T11:53:13;11.38;;;7.70;;
54831;SDS011;40730;53.068;6.572;2024-02-14T11:55:41;13.65;;;9.25;;
54831;SDS011;40730;53.068;6.572;2024-02-14T11:58:10;14.55;;;9.15;;
54831;SDS011;40730;53.068;6.572;2024-02-14T12:00:40;16.63;;;10.88;;
54831;SDS011;40730;53.068;6.572;2024-02-14T12:03:22;17.65;;;10.85;;
54831;SDS011;40730;53.068;6.572;2024-02-14T12:05:49;17.20;;;11.02;;
54831;SDS011;40730;53.068;6.572;2024-02-14T12:08:16;15.65;;;10.25;;
54831;SDS011;40730;53.068;6.572;2024-02-14T12:10:43;19.27;;;11.02;;
54831;SDS011;40730;53.068;6.572;2024-02-14T12:13:13;13.55;;;8.88;;
54831;SDS011;40730;53.068;6.572;2024-02-14T12:18:19;11.43;;;9.20;;
54831;SDS011;40730;53.068;6.572;2024-02-14T12:20:45;14.15;;;10.65;;
54831;SDS011;40730;53.068;6.572;2024-02-14T12:23:15;11.88;;;9.85;;
54831;SDS011;40730;53.068;6.572;2024-02-14T12:25:42;14.82;;;10.65;;
54831;SDS011;40730;53.068;6.572;2024-02-14T12:28:08;15.95;;;10.82;;
54831;SDS011;40730;53.068;6.572;2024-02-14T12:33:13;10.38;;;9.05;;
54831;SDS011;40730;53.068;6.572;2024-02-14T12:35:41;14.93;;;9.57;;
54831;SDS011;40730;53.068;6.572;2024-02-14T12:38:08;11.02;;;8.70;;
54831;SDS011;40730;53.068;6.572;2024-02-14T12:40:35;11.65;;;9.68;;
54831;SDS011;40730;53.068;6.572;2024-02-14T12:43:01;12.13;;;8.82;;
54831;SDS011;40730;53.068;6.572;2024-02-14T12:45:26;14.63;;;10.35;;
54831;SDS011;40730;53.068;6.572;2024-02-14T12:47:52;10.50;;;9.02;;
54831;SDS011;40730;53.068;6.572;2024-02-14T12:50:18;13.50;;;9.82;;
54831;SDS011;40730;53.068;6.572;2024-02-14T12:52:45;10.82;;;8.95;;
54831;SDS011;40730;53.068;6.572;2024-02-14T12:55:11;12.93;;;8.95;;
54831;SDS011;40730;53.068;6.572;2024-02-14T12:57:37;11.75;;;10.07;;
54831;SDS011;40730;53.068;6.572;2024-02-14T13:00:05;13.65;;;10.40;;
54831;SDS011;40730;53.068;6.572;2024-02-14T13:02:33;12.90;;;10.23;;
54831;SDS011;40730;53.068;6.572;2024-02-14T13:04:59;13.65;;;10.18;;
54831;SDS011;40730;53.068;6.572;2024-02-14T13:07:26;13.77;;;10.27;;
54831;SDS011;40730;53.068;6.572;2024-02-14T13:09:53;12.68;;;9.63;;
54831;SDS011;40730;53.068;6.572;2024-02-14T13:12:20;12.43;;;10.10;;
54831;SDS011;40730;53.068;6.572;2024-02-14T13:14:46;12.68;;;9.82;;
54831;SDS011;40730;53.068;6.572;2024-02-14T13:17:12;10.77;;;9.68;;
54831;SDS011;40730;53.068;6.572;2024-02-14T13:19:39;12.38;;;10.27;;
54831;SDS011;40730;53.068;6.572;2024-02-14T13:22:05;12.65;;;9.93;;
54831;SDS011;40730;53.068;6.572;2024-02-14T13:24:31;10.48;;;8.63;;
54831;SDS011;40730;53.068;6.572;2024-02-14T13:26:56;12.85;;;9.27;;
54831;SDS011;40730;53.068;6.572;2024-02-14T13:29:25;11.25;;;9.48;;
54831;SDS011;40730;53.068;6.572;2024-02-14T13:31:50;14.48;;;9.95;;
54831;SDS011;40730;53.068;6.572;2024-02-14T13:34:16;12.60;;;11.13;;
54831;SDS011;40730;53.068;6.572;2024-02-14T13:36:44;14.80;;;11.13;;
54831;SDS011;40730;53.068;6.572;2024-02-14T13:39:11;15.60;;;12.30;;
54831;SDS011;40730;53.068;6.572;2024-02-14T13:41:42;18.10;;;13.13;;
54831;SDS011;40730;53.068;6.572;2024-02-14T13:44:09;18.48;;;13.80;;
54831;SDS011;40730;53.068;6.572;2024-02-14T13:46:36;19.40;;;15.02;;
54831;SDS011;40730;53.068;6.572;2024-02-14T13:49:02;23.13;;;15.57;;
54831;SDS011;40730;53.068;6.572;2024-02-14T13:51:27;24.13;;;15.50;;
54831;SDS011;40730;53.068;6.572;2024-02-14T13:53:53;28.70;;;18.45;;
54831;SDS011;40730;53.068;6.572;2024-02-14T13:56:20;27.23;;;17.52;;
54831;SDS011;40730;53.068;6.572;2024-02-14T13:58:48;25.50;;;17.35;;
54831;SDS011;40730;53.068;6.572;2024-02-14T14:01:16;30.10;;;18.25;;
54831;SDS011;40730;53.068;6.572;2024-02-14T14:03:42;30.20;;;17.40;;
54831;SDS011;40730;53.068;6.572;2024-02-14T14:06:08;28.33;;;18.58;;
54831;SDS011;40730;53.068;6.572;2024-02-14T14:08:34;22.50;;;16.67;;
54831;SDS011;40730;53.068;6.572;2024-02-14T14:11:02;29.50;;;18.27;;
54831;SDS011;40730;53.068;6.572;2024-02-14T14:13:28;26.80;;;17.45;;
54831;SDS011;40730;53.068;6.572;2024-02-14T14:15:56;24.95;;;16.25;;
54831;SDS011;40730;53.068;6.572;2024-02-14T14:18:22;22.95;;;15.50;;
54831;SDS011;40730;53.068;6.572;2024-02-14T14:20:48;22.10;;;15.30;;
54831;SDS011;40730;53.068;6.572;2024-02-14T14:23:14;19.25;;;12.88;;
54831;SDS011;40730;53.068;6.572;2024-02-14T14:25:41;21.05;;;13.93;;
54831;SDS011;40730;53.068;6.572;2024-02-14T14:28:06;16.35;;;11.80;;
54831;SDS011;40730;53.068;6.572;2024-02-14T14:30:34;19.85;;;12.95;;
54831;SDS011;40730;53.068;6.572;2024-02-14T14:33:00;17.13;;;12.30;;
54831;SDS011;40730;53.068;6.572;2024-02-14T14:35:26;17.58;;;12.15;;